sensor_id;sensor_type;location;lat;lon;timestamp;pressure;altitude;pressure_sealevel;temperature;humidity
64551;BME280;74341;44.510;-123.270;2024-02-23T00:01:28;101686.81;;;13.73;70.16
64551;BME280;74341;44.510;-123.270;2024-02-23T00:03:55;101687.50;;;13.66;70.32
64551;BME280;74341;44.510;-123.270;2024-02-23T00:06:21;101688.88;;;13.62;69.83
64551;BME280;74341;44.510;-123.270;2024-02-23T00:08:54;101678.41;;;13.58;70.50
64551;BME280;74341;44.510;-123.270;2024-02-23T00:11:21;101682.88;;;13.50;70.88
64551;BME280;74341;44.510;-123.270;2024-02-23T00:13:47;101670.34;;;13.48;71.90
64551;BME280;74341;44.510;-123.270;2024-02-23T00:16:13;101673.63;;;13.43;72.10
64551;BME280;74341;44.510;-123.270;2024-02-23T00:18:40;101676.00;;;13.38;71.89
64551;BME280;74341;44.510;-123.270;2024-02-23T00:21:06;101678.25;;;13.35;72.40
64551;BME280;74341;44.510;-123.270;2024-02-23T00:23:32;101683.84;;;13.25;69.56
64551;BME280;74341;44.510;-123.270;2024-02-23T00:25:58;101679.22;;;13.17;72.47
64551;BME280;74341;44.510;-123.270;2024-02-23T00:28:24;101692.75;;;13.10;70.32
64551;BME280;74341;44.510;-123.270;2024-02-23T00:30:50;101689.50;;;13.07;73.97
64551;BME280;74341;44.510;-123.270;2024-02-23T00:33:17;101692.41;;;13.05;74.01
64551;BME280;74341;44.510;-123.270;2024-02-23T00:35:43;101687.44;;;13.01;74.29
64551;BME280;74341;44.510;-123.270;2024-02-23T00:38:10;101690.69;;;13.04;74.86
64551;BME280;74341;44.510;-123.270;2024-02-23T00:40:37;101690.69;;;13.04;74.90
64551;BME280;74341;44.510;-123.270;2024-02-23T00:43:04;101688.97;;;13.03;74.11
64551;BME280;74341;44.510;-123.270;2024-02-23T00:45:30;101695.00;;;12.99;74.51
64551;BME280;74341;44.510;-123.270;2024-02-23T00:47:57;101694.63;;;12.93;74.10
64551;BME280;74341;44.510;-123.270;2024-02-23T00:50:23;101699.41;;;12.91;74.91
64551;BME280;74341;44.510;-123.270;2024-02-23T00:52:52;101701.28;;;12.91;75.26
64551;BME280;74341;44.510;-123.270;2024-02-23T00:55:19;101707.84;;;12.90;75.06
64551;BME280;74341;44.510;-123.270;2024-02-23T00:57:45;101695.97;;;12.89;75.61
64551;BME280;74341;44.510;-123.270;2024-02-23T01:00:12;101697.88;;;12.89;76.05
64551;BME280;74341;44.510;-123.270;2024-02-23T01:02:38;101688.09;;;12.86;75.60
64551;BME280;74341;44.510;-123.270;2024-02-23T01:05:06;101692.19;;;12.82;75.50
64551;BME280;74341;44.510;-123.270;2024-02-23T01:07:35;101683.94;;;12.74;75.70
64551;BME280;74341;44.510;-123.270;2024-02-23T01:10:01;101685.44;;;12.68;76.43
64551;BME280;74341;44.510;-123.270;2024-02-23T01:12:29;101698.09;;;12.61;76.68
64551;BME280;74341;44.510;-123.270;2024-02-23T01:14:56;101694.66;;;12.51;76.93
64551;BME280;74341;44.510;-123.270;2024-02-23T01:17:22;101695.31;;;12.45;77.59
64551;BME280;74341;44.510;-123.270;2024-02-23T01:19:48;101691.19;;;12.41;77.83
64551;BME280;74341;44.510;-123.270;2024-02-23T01:22:15;101692.56;;;12.45;78.11
64551;BME280;74341;44.510;-123.270;2024-02-23T01:24:41;101695.66;;;12.50;78.13
64551;BME280;74341;44.510;-123.270;2024-02-23T01:27:07;101701.53;;;12.55;77.90
64551;BME280;74341;44.510;-123.270;2024-02-23T01:29:34;101691.56;;;12.54;78.00
64551;BME280;74341;44.510;-123.270;2024-02-23T01:32:00;101703.94;;;12.58;78.54
64551;BME280;74341;44.510;-123.270;2024-02-23T01:34:27;101697.56;;;12.58;78.42
64551;BME280;74341;44.510;-123.270;2024-02-23T01:36:53;101694.31;;;12.54;78.54
64551;BME280;74341;44.510;-123.270;2024-02-23T01:39:20;101692.56;;;12.45;77.38
64551;BME280;74341;44.510;-123.270;2024-02-23T01:41:46;101682.94;;;12.41;79.43
64551;BME280;74341;44.510;-123.270;2024-02-23T01:44:12;101686.00;;;12.38;79.71
64551;BME280;74341;44.510;-123.270;2024-02-23T01:46:41;101689.06;;;12.34;79.96
64551;BME280;74341;44.510;-123.270;2024-02-23T01:49:08;101689.06;;;12.34;79.91
64551;BME280;74341;44.510;-123.270;2024-02-23T01:51:35;101688.00;;;12.27;80.32
64551;BME280;74341;44.510;-123.270;2024-02-23T01:54:01;101688.16;;;12.17;80.55
64551;BME280;74341;44.510;-123.270;2024-02-23T01:56:29;101693.91;;;12.06;80.81
64551;BME280;74341;44.510;-123.270;2024-02-23T01:58:56;101692.47;;;11.94;81.40
64551;BME280;74341;44.510;-123.270;2024-02-23T02:01:22;101686.91;;;11.86;81.88
64551;BME280;74341;44.510;-123.270;2024-02-23T02:03:49;101688.25;;;11.82;81.97
64551;BME280;74341;44.510;-123.270;2024-02-23T02:06:15;101691.59;;;11.75;82.14
64551;BME280;74341;44.510;-123.270;2024-02-23T02:08:42;101689.84;;;11.66;82.69
64551;BME280;74341;44.510;-123.270;2024-02-23T02:11:08;101680.84;;;11.56;83.08
64551;BME280;74341;44.510;-123.270;2024-02-23T02:13:35;101680.06;;;11.46;83.08
64551;BME280;74341;44.510;-123.270;2024-02-23T02:16:02;101674.00;;;11.34;83.89
64551;BME280;74341;44.510;-123.270;2024-02-23T02:18:28;101674.97;;;11.25;84.04
64551;BME280;74341;44.510;-123.270;2024-02-23T02:20:57;101694.56;;;11.20;84.27
64551;BME280;74341;44.510;-123.270;2024-02-23T02:23:23;101692.44;;;11.14;84.44
64551;BME280;74341;44.510;-123.270;2024-02-23T02:25:53;101685.56;;;11.10;84.47
64551;BME280;74341;44.510;-123.270;2024-02-23T02:28:20;101688.47;;;11.08;84.56
64551;BME280;74341;44.510;-123.270;2024-02-23T02:30:46;101683.47;;;11.03;84.71
64551;BME280;74341;44.510;-123.270;2024-02-23T02:33:12;101688.53;;;10.98;84.48
64551;BME280;74341;44.510;-123.270;2024-02-23T02:35:39;101684.56;;;10.93;84.71
64551;BME280;74341;44.510;-123.270;2024-02-23T02:38:05;101685.31;;;10.85;84.97
64551;BME280;74341;44.510;-123.270;2024-02-23T02:40:31;101673.59;;;10.75;85.30
64551;BME280;74341;44.510;-123.270;2024-02-23T02:42:58;101673.66;;;10.65;85.41
64551;BME280;74341;44.510;-123.270;2024-02-23T02:45:24;101683.63;;;10.56;85.72
64551;BME280;74341;44.510;-123.270;2024-02-23T02:47:51;101698.78;;;10.51;85.86
64551;BME280;74341;44.510;-123.270;2024-02-23T02:50:17;101702.81;;;10.46;85.60
64551;BME280;74341;44.510;-123.270;2024-02-23T02:52:43;101692.47;;;10.40;85.55
64551;BME280;74341;44.510;-123.270;2024-02-23T02:55:10;101697.09;;;10.30;85.76
64551;BME280;74341;44.510;-123.270;2024-02-23T02:57:36;101694.41;;;10.20;86.15
64551;BME280;74341;44.510;-123.270;2024-02-23T03:00:04;101709.13;;;10.09;86.65
64551;BME280;74341;44.510;-123.270;2024-02-23T03:02:37;101700.53;;;9.95;87.06
64551;BME280;74341;44.510;-123.270;2024-02-23T03:05:04;101706.88;;;9.85;87.65
64551;BME280;74341;44.510;-123.270;2024-02-23T03:07:30;101711.19;;;9.78;88.08
64551;BME280;74341;44.510;-123.270;2024-02-23T03:09:56;101712.38;;;9.76;87.76
64551;BME280;74341;44.510;-123.270;2024-02-23T03:12:23;101700.31;;;9.68;88.06
64551;BME280;74341;44.510;-123.270;2024-02-23T03:14:49;101702.06;;;9.60;88.19
64551;BME280;74341;44.510;-123.270;2024-02-23T03:17:16;101706.50;;;9.51;88.93
64551;BME280;74341;44.510;-123.270;2024-02-23T03:19:43;101710.69;;;9.45;89.11
64551;BME280;74341;44.510;-123.270;2024-02-23T03:22:09;101711.09;;;9.41;89.30
64551;BME280;74341;44.510;-123.270;2024-02-23T03:24:36;101716.00;;;9.37;89.04
64551;BME280;74341;44.510;-123.270;2024-02-23T03:27:03;101713.69;;;9.32;89.40
64551;BME280;74341;44.510;-123.270;2024-02-23T03:29:29;101707.97;;;9.26;89.70
64551;BME280;74341;44.510;-123.270;2024-02-23T03:31:56;101716.13;;;9.16;89.87
64551;BME280;74341;44.510;-123.270;2024-02-23T03:34:22;101708.09;;;9.05;90.10
64551;BME280;74341;44.510;-123.270;2024-02-23T03:36:52;101708.78;;;8.97;90.42
64551;BME280;74341;44.510;-123.270;2024-02-23T03:39:18;101715.66;;;8.91;91.05
64551;BME280;74341;44.510;-123.270;2024-02-23T03:41:45;101707.91;;;8.87;91.37
64551;BME280;74341;44.510;-123.270;2024-02-23T03:44:11;101698.28;;;8.83;91.15
64551;BME280;74341;44.510;-123.270;2024-02-23T03:46:37;101693.97;;;8.80;91.47
64551;BME280;74341;44.510;-123.270;2024-02-23T03:49:04;101701.56;;;8.77;92.02
64551;BME280;74341;44.510;-123.270;2024-02-23T03:51:30;101709.03;;;8.74;92.65
64551;BME280;74341;44.510;-123.270;2024-02-23T03:53:58;101718.19;;;8.73;93.19
64551;BME280;74341;44.510;-123.270;2024-02-23T03:56:25;101727.22;;;8.74;93.07
64551;BME280;74341;44.510;-123.270;2024-02-23T03:58:51;101728.13;;;8.74;93.31
64551;BME280;74341;44.510;-123.270;2024-02-23T04:01:18;101718.34;;;8.72;92.75
64551;BME280;74341;44.510;-123.270;2024-02-23T04:03:44;101723.78;;;8.62;92.59
64551;BME280;74341;44.510;-123.270;2024-02-23T04:06:10;101719.16;;;8.53;92.85
64551;BME280;74341;44.510;-123.270;2024-02-23T04:08:37;101720.72;;;8.46;92.29
64551;BME280;74341;44.510;-123.270;2024-02-23T04:11:03;101720.63;;;8.36;93.22
64551;BME280;74341;44.510;-123.270;2024-02-23T04:13:29;101721.19;;;8.30;92.78
64551;BME280;74341;44.510;-123.270;2024-02-23T04:15:56;101721.84;;;8.22;93.70
64551;BME280;74341;44.510;-123.270;2024-02-23T04:18:22;101732.59;;;8.14;97.77
64551;BME280;74341;44.510;-123.270;2024-02-23T04:20:49;101730.25;;;8.09;94.48
64551;BME280;74341;44.510;-123.270;2024-02-23T04:23:15;101734.25;;;8.05;95.09
64551;BME280;74341;44.510;-123.270;2024-02-23T04:25:41;101744.56;;;8.02;94.59
64551;BME280;74341;44.510;-123.270;2024-02-23T04:28:08;101742.09;;;7.98;94.39
64551;BME280;74341;44.510;-123.270;2024-02-23T04:30:35;101745.06;;;7.95;95.01
64551;BME280;74341;44.510;-123.270;2024-02-23T04:33:01;101759.97;;;7.91;95.51
64551;BME280;74341;44.510;-123.270;2024-02-23T04:35:27;101753.44;;;7.83;95.06
64551;BME280;74341;44.510;-123.270;2024-02-23T04:37:53;101755.97;;;7.74;95.57
64551;BME280;74341;44.510;-123.270;2024-02-23T04:40:20;101751.19;;;7.67;95.58
64551;BME280;74341;44.510;-123.270;2024-02-23T04:42:46;101750.13;;;7.58;95.80
64551;BME280;74341;44.510;-123.270;2024-02-23T04:45:13;101751.63;;;7.51;95.81
64551;BME280;74341;44.510;-123.270;2024-02-23T04:47:40;101748.56;;;7.44;95.96
64551;BME280;74341;44.510;-123.270;2024-02-23T04:50:07;101749.97;;;7.38;95.63
64551;BME280;74341;44.510;-123.270;2024-02-23T04:52:34;101746.75;;;7.33;95.54
64551;BME280;74341;44.510;-123.270;2024-02-23T04:55:00;101757.03;;;7.30;96.51
64551;BME280;74341;44.510;-123.270;2024-02-23T04:57:27;101745.56;;;7.26;96.71
64551;BME280;74341;44.510;-123.270;2024-02-23T04:59:53;101753.84;;;7.24;96.59
64551;BME280;74341;44.510;-123.270;2024-02-23T05:02:19;101752.25;;;7.22;96.69
64551;BME280;74341;44.510;-123.270;2024-02-23T05:04:46;101742.47;;;7.19;96.76
64551;BME280;74341;44.510;-123.270;2024-02-23T05:07:13;101742.88;;;7.15;96.44
64551;BME280;74341;44.510;-123.270;2024-02-23T05:09:39;101736.97;;;7.10;96.30
64551;BME280;74341;44.510;-123.270;2024-02-23T05:12:08;101737.22;;;7.07;96.66
64551;BME280;74341;44.510;-123.270;2024-02-23T05:14:34;101737.63;;;7.02;97.11
64551;BME280;74341;44.510;-123.270;2024-02-23T05:17:00;101752.31;;;6.99;96.87
64551;BME280;74341;44.510;-123.270;2024-02-23T05:19:27;101748.00;;;6.97;97.68
64551;BME280;74341;44.510;-123.270;2024-02-23T05:21:53;101750.00;;;6.95;97.82
64551;BME280;74341;44.510;-123.270;2024-02-23T05:24:19;101751.94;;;6.93;98.04
64551;BME280;74341;44.510;-123.270;2024-02-23T05:26:46;101746.06;;;6.88;97.74
64551;BME280;74341;44.510;-123.270;2024-02-23T05:29:12;101753.59;;;6.84;97.99
64551;BME280;74341;44.510;-123.270;2024-02-23T05:31:49;101744.97;;;6.79;98.07
64551;BME280;74341;44.510;-123.270;2024-02-23T05:34:15;101756.06;;;6.76;97.76
64551;BME280;74341;44.510;-123.270;2024-02-23T05:36:42;101760.78;;;6.74;98.40
64551;BME280;74341;44.510;-123.270;2024-02-23T05:39:09;101759.16;;;6.71;98.07
64551;BME280;74341;44.510;-123.270;2024-02-23T05:41:36;101752.38;;;6.65;97.46
64551;BME280;74341;44.510;-123.270;2024-02-23T05:44:03;101754.34;;;6.63;97.13
64551;BME280;74341;44.510;-123.270;2024-02-23T05:46:35;101759.31;;;6.58;97.71
64551;BME280;74341;44.510;-123.270;2024-02-23T05:49:02;101748.78;;;6.54;98.07
64551;BME280;74341;44.510;-123.270;2024-02-23T05:51:32;101755.22;;;6.53;98.89
64551;BME280;74341;44.510;-123.270;2024-02-23T05:53:58;101759.19;;;6.49;98.73
64551;BME280;74341;44.510;-123.270;2024-02-23T05:56:25;101754.00;;;6.45;98.64
64551;BME280;74341;44.510;-123.270;2024-02-23T05:58:51;101743.38;;;6.42;98.91
64551;BME280;74341;44.510;-123.270;2024-02-23T06:01:18;101747.22;;;6.40;98.68
64551;BME280;74341;44.510;-123.270;2024-02-23T06:03:45;101760.06;;;6.38;99.02
64551;BME280;74341;44.510;-123.270;2024-02-23T06:06:12;101758.44;;;6.35;98.50
64551;BME280;74341;44.510;-123.270;2024-02-23T06:08:38;101761.41;;;6.32;98.56
64551;BME280;74341;44.510;-123.270;2024-02-23T06:11:04;101766.94;;;6.31;99.55
64551;BME280;74341;44.510;-123.270;2024-02-23T06:13:31;101767.34;;;6.26;98.61
64551;BME280;74341;44.510;-123.270;2024-02-23T06:15:57;101755.13;;;6.20;98.31
64551;BME280;74341;44.510;-123.270;2024-02-23T06:18:24;101765.34;;;6.17;97.82
64551;BME280;74341;44.510;-123.270;2024-02-23T06:20:50;101770.16;;;6.13;98.60
64551;BME280;74341;44.510;-123.270;2024-02-23T06:23:17;101771.25;;;6.11;98.78
64551;BME280;74341;44.510;-123.270;2024-02-23T06:25:43;101767.19;;;6.05;99.22
64551;BME280;74341;44.510;-123.270;2024-02-23T06:28:11;101771.00;;;6.02;98.81
64551;BME280;74341;44.510;-123.270;2024-02-23T06:30:37;101779.28;;;6.01;98.72
64551;BME280;74341;44.510;-123.270;2024-02-23T06:33:03;101775.81;;;5.99;99.15
64551;BME280;74341;44.510;-123.270;2024-02-23T06:35:33;101773.09;;;5.99;99.71
64551;BME280;74341;44.510;-123.270;2024-02-23T06:37:59;101774.19;;;5.96;99.80
64551;BME280;74341;44.510;-123.270;2024-02-23T06:40:26;101774.38;;;5.93;99.47
64551;BME280;74341;44.510;-123.270;2024-02-23T06:42:52;101778.34;;;5.89;99.86
64551;BME280;74341;44.510;-123.270;2024-02-23T06:45:18;101780.44;;;5.85;99.42
64551;BME280;74341;44.510;-123.270;2024-02-23T06:47:45;101783.38;;;5.82;99.71
64551;BME280;74341;44.510;-123.270;2024-02-23T06:50:11;101789.19;;;5.78;99.58
64551;BME280;74341;44.510;-123.270;2024-02-23T06:52:38;101786.69;;;5.75;100.00
64551;BME280;74341;44.510;-123.270;2024-02-23T06:55:04;101780.75;;;5.69;99.69
64551;BME280;74341;44.510;-123.270;2024-02-23T06:57:31;101780.88;;;5.68;99.58
64551;BME280;74341;44.510;-123.270;2024-02-23T06:59:58;101783.06;;;5.63;99.32
64551;BME280;74341;44.510;-123.270;2024-02-23T07:02:24;101785.03;;;5.61;99.48
64551;BME280;74341;44.510;-123.270;2024-02-23T07:04:51;101786.16;;;5.58;100.00
64551;BME280;74341;44.510;-123.270;2024-02-23T07:07:17;101795.25;;;5.57;99.62
64551;BME280;74341;44.510;-123.270;2024-02-23T07:09:44;101796.25;;;5.56;100.00
64551;BME280;74341;44.510;-123.270;2024-02-23T07:12:10;101786.59;;;5.52;100.00
64551;BME280;74341;44.510;-123.270;2024-02-23T07:14:39;101795.00;;;5.49;99.85
64551;BME280;74341;44.510;-123.270;2024-02-23T07:17:05;101794.22;;;5.47;100.00
64551;BME280;74341;44.510;-123.270;2024-02-23T07:19:33;101786.44;;;5.42;99.92
64551;BME280;74341;44.510;-123.270;2024-02-23T07:22:00;101789.38;;;5.39;100.00
64551;BME280;74341;44.510;-123.270;2024-02-23T07:24:28;101794.19;;;5.36;100.00
64551;BME280;74341;44.510;-123.270;2024-02-23T07:26:54;101795.16;;;5.34;100.00
64551;BME280;74341;44.510;-123.270;2024-02-23T07:29:20;101790.84;;;5.32;100.00
64551;BME280;74341;44.510;-123.270;2024-02-23T07:31:47;101790.94;;;5.30;100.00
64551;BME280;74341;44.510;-123.270;2024-02-23T07:34:13;101796.59;;;5.27;100.00
64551;BME280;74341;44.510;-123.270;2024-02-23T07:36:39;101804.72;;;5.27;100.00
64551;BME280;74341;44.510;-123.270;2024-02-23T07:39:05;101803.00;;;5.26;100.00
64551;BME280;74341;44.510;-123.270;2024-02-23T07:41:32;101798.56;;;5.25;100.00
64551;BME280;74341;44.510;-123.270;2024-02-23T07:43:58;101800.53;;;5.23;100.00
64551;BME280;74341;44.510;-123.270;2024-02-23T07:46:24;101804.19;;;5.22;99.85
64551;BME280;74341;44.510;-123.270;2024-02-23T07:48:51;101804.44;;;5.19;100.00
64551;BME280;74341;44.510;-123.270;2024-02-23T07:51:17;101804.44;;;5.19;100.00
64551;BME280;74341;44.510;-123.270;2024-02-23T07:53:44;101809.13;;;5.17;100.00
64551;BME280;74341;44.510;-123.270;2024-02-23T07:56:11;101803.81;;;5.16;100.00
64551;BME280;74341;44.510;-123.270;2024-02-23T07:58:38;101798.72;;;5.11;100.00
64551;BME280;74341;44.510;-123.270;2024-02-23T08:01:04;101797.97;;;5.09;100.00
64551;BME280;74341;44.510;-123.270;2024-02-23T08:03:30;101801.66;;;5.08;100.00
64551;BME280;74341;44.510;-123.270;2024-02-23T08:05:57;101801.00;;;5.04;100.00
64551;BME280;74341;44.510;-123.270;2024-02-23T08:08:23;101811.22;;;5.01;100.00
64551;BME280;74341;44.510;-123.270;2024-02-23T08:10:51;101813.41;;;4.95;100.00
64551;BME280;74341;44.510;-123.270;2024-02-23T08:13:18;101814.63;;;4.91;100.00
64551;BME280;74341;44.510;-123.270;2024-02-23T08:15:44;101814.09;;;4.86;100.00
64551;BME280;74341;44.510;-123.270;2024-02-23T08:18:11;101819.97;;;4.80;100.00
64551;BME280;74341;44.510;-123.270;2024-02-23T08:20:37;101822.88;;;4.77;100.00
64551;BME280;74341;44.510;-123.270;2024-02-23T08:23:03;101827.44;;;4.76;100.00
64551;BME280;74341;44.510;-123.270;2024-02-23T08:25:30;101835.78;;;4.73;100.00
64551;BME280;74341;44.510;-123.270;2024-02-23T08:27:56;101825.28;;;4.69;100.00
64551;BME280;74341;44.510;-123.270;2024-02-23T08:30:25;101826.47;;;4.65;100.00
64551;BME280;74341;44.510;-123.270;2024-02-23T08:32:51;101834.97;;;4.60;100.00
64551;BME280;74341;44.510;-123.270;2024-02-23T08:35:17;101829.09;;;4.53;100.00
64551;BME280;74341;44.510;-123.270;2024-02-23T08:37:44;101832.03;;;4.50;100.00
64551;BME280;74341;44.510;-123.270;2024-02-23T08:40:11;101837.09;;;4.42;100.00
64551;BME280;74341;44.510;-123.270;2024-02-23T08:42:37;101840.47;;;4.33;100.00
64551;BME280;74341;44.510;-123.270;2024-02-23T08:45:04;101841.78;;;4.27;100.00
64551;BME280;74341;44.510;-123.270;2024-02-23T08:47:31;101843.81;;;4.24;100.00
64551;BME280;74341;44.510;-123.270;2024-02-23T08:50:01;101838.41;;;4.24;100.00
64551;BME280;74341;44.510;-123.270;2024-02-23T08:52:28;101833.97;;;4.23;100.00
64551;BME280;74341;44.510;-123.270;2024-02-23T08:54:55;101834.19;;;4.19;100.00
64551;BME280;74341;44.510;-123.270;2024-02-23T08:57:21;101828.03;;;4.17;100.00
64551;BME280;74341;44.510;-123.270;2024-02-23T08:59:49;101825.44;;;4.16;100.00
64551;BME280;74341;44.510;-123.270;2024-02-23T09:02:16;101817.41;;;4.14;100.00
64551;BME280;74341;44.510;-123.270;2024-02-23T09:04:42;101815.66;;;4.13;100.00
64551;BME280;74341;44.510;-123.270;2024-02-23T09:07:10;101823.78;;;4.13;100.00
64551;BME280;74341;44.510;-123.270;2024-02-23T09:09:37;101823.13;;;4.10;100.00
64551;BME280;74341;44.510;-123.270;2024-02-23T09:12:03;101824.13;;;4.09;100.00
64551;BME280;74341;44.510;-123.270;2024-02-23T09:14:32;101832.34;;;4.07;100.00
64551;BME280;74341;44.510;-123.270;2024-02-23T09:17:01;101827.03;;;4.06;100.00
64551;BME280;74341;44.510;-123.270;2024-02-23T09:19:27;101822.69;;;4.03;100.00
64551;BME280;74341;44.510;-123.270;2024-02-23T09:21:53;101822.91;;;4.00;100.00
64551;BME280;74341;44.510;-123.270;2024-02-23T09:24:41;101833.84;;;3.98;100.00
64551;BME280;74341;44.510;-123.270;2024-02-23T09:27:08;101825.06;;;3.95;100.00
64551;BME280;74341;44.510;-123.270;2024-02-23T09:29:34;101834.16;;;3.94;100.00
64551;BME280;74341;44.510;-123.270;2024-02-23T09:32:01;101833.28;;;3.93;100.00
64551;BME280;74341;44.510;-123.270;2024-02-23T09:34:27;101840.56;;;3.93;100.00
64551;BME280;74341;44.510;-123.270;2024-02-23T09:36:55;101834.25;;;3.92;100.00
64551;BME280;74341;44.510;-123.270;2024-02-23T09:39:21;101833.50;;;3.90;100.00
64551;BME280;74341;44.510;-123.270;2024-02-23T09:41:50;101830.03;;;3.88;100.00
64551;BME280;74341;44.510;-123.270;2024-02-23T09:44:18;101832.84;;;3.87;100.00
64551;BME280;74341;44.510;-123.270;2024-02-23T09:46:47;101827.75;;;3.82;100.00
64551;BME280;74341;44.510;-123.270;2024-02-23T09:49:15;101832.38;;;3.80;100.00
64551;BME280;74341;44.510;-123.270;2024-02-23T09:51:44;101832.63;;;3.77;100.00
64551;BME280;74341;44.510;-123.270;2024-02-23T09:54:11;101830.78;;;3.77;100.00
64551;BME280;74341;44.510;-123.270;2024-02-23T09:56:38;101839.97;;;3.75;100.00
64551;BME280;74341;44.510;-123.270;2024-02-23T09:59:05;101839.09;;;3.74;100.00
64551;BME280;74341;44.510;-123.270;2024-02-23T10:01:32;101825.47;;;3.76;100.00
64551;BME280;74341;44.510;-123.270;2024-02-23T10:04:00;101825.47;;;3.76;100.00
64551;BME280;74341;44.510;-123.270;2024-02-23T10:06:28;101817.44;;;3.74;100.00
64551;BME280;74341;44.510;-123.270;2024-02-23T10:08:54;101814.75;;;3.74;100.00
64551;BME280;74341;44.510;-123.270;2024-02-23T10:11:21;101830.97;;;3.74;100.00
64551;BME280;74341;44.510;-123.270;2024-02-23T10:13:48;101829.16;;;3.75;100.00
64551;BME280;74341;44.510;-123.270;2024-02-23T10:16:21;101827.41;;;3.74;100.00
64551;BME280;74341;44.510;-123.270;2024-02-23T10:18:48;101817.53;;;3.73;100.00
64551;BME280;74341;44.510;-123.270;2024-02-23T10:21:18;101825.75;;;3.71;100.00
64551;BME280;74341;44.510;-123.270;2024-02-23T10:23:45;101817.88;;;3.68;100.00
64551;BME280;74341;44.510;-123.270;2024-02-23T10:26:11;101806.16;;;3.68;100.00
64551;BME280;74341;44.510;-123.270;2024-02-23T10:28:37;101799.91;;;3.67;100.00
64551;BME280;74341;44.510;-123.270;2024-02-23T10:31:06;101797.31;;;3.66;100.00
64551;BME280;74341;44.510;-123.270;2024-02-23T10:33:34;101801.09;;;3.63;100.00
64551;BME280;74341;44.510;-123.270;2024-02-23T10:36:04;101805.84;;;3.59;100.00
64551;BME280;74341;44.510;-123.270;2024-02-23T10:38:32;101817.63;;;3.58;100.00
64551;BME280;74341;44.510;-123.270;2024-02-23T10:40:58;101826.63;;;3.59;100.00
64551;BME280;74341;44.510;-123.270;2024-02-23T10:43:35;101833.00;;;3.58;100.00
64551;BME280;74341;44.510;-123.270;2024-02-23T10:46:02;101836.78;;;3.55;100.00
64551;BME280;74341;44.510;-123.270;2024-02-23T10:48:34;101845.00;;;3.54;100.00
64551;BME280;74341;44.510;-123.270;2024-02-23T10:51:02;101848.66;;;3.53;100.00
64551;BME280;74341;44.510;-123.270;2024-02-23T10:53:29;101851.44;;;3.51;100.00
64551;BME280;74341;44.510;-123.270;2024-02-23T10:55:56;101851.44;;;3.51;100.00
64551;BME280;74341;44.510;-123.270;2024-02-23T10:58:26;101863.16;;;3.52;100.00
64551;BME280;74341;44.510;-123.270;2024-02-23T11:00:54;101865.72;;;3.53;100.00
64551;BME280;74341;44.510;-123.270;2024-02-23T11:03:28;101855.81;;;3.54;100.00
64551;BME280;74341;44.510;-123.270;2024-02-23T11:05:55;101857.53;;;3.55;100.00
64551;BME280;74341;44.510;-123.270;2024-02-23T11:08:21;101866.63;;;3.54;100.00
64551;BME280;74341;44.510;-123.270;2024-02-23T11:10:51;101863.91;;;3.54;100.00
64551;BME280;74341;44.510;-123.270;2024-02-23T11:13:18;101856.88;;;3.51;100.00
64551;BME280;74341;44.510;-123.270;2024-02-23T11:15:44;101865.72;;;3.53;100.00
64551;BME280;74341;44.510;-123.270;2024-02-23T11:18:29;101865.97;;;3.50;100.00
64551;BME280;74341;44.510;-123.270;2024-02-23T11:21:02;101862.38;;;3.50;100.00
64551;BME280;74341;44.510;-123.270;2024-02-23T11:23:51;101871.47;;;3.49;100.00
64551;BME280;74341;44.510;-123.270;2024-02-23T11:26:19;101868.00;;;3.47;100.00
64551;BME280;74341;44.510;-123.270;2024-02-23T11:28:49;101871.66;;;3.46;100.00
64551;BME280;74341;44.510;-123.270;2024-02-23T11:31:22;101867.34;;;3.43;100.00
64551;BME280;74341;44.510;-123.270;2024-02-23T11:33:55;101872.75;;;3.43;100.00
64551;BME280;74341;44.510;-123.270;2024-02-23T11:38:52;101849.38;;;3.42;100.00
64551;BME280;74341;44.510;-123.270;2024-02-23T11:41:20;101854.00;;;3.40;100.00
64551;BME280;74341;44.510;-123.270;2024-02-23T11:43:47;101849.78;;;3.36;100.00
64551;BME280;74341;44.510;-123.270;2024-02-23T11:46:15;101855.28;;;3.34;100.00
64551;BME280;74341;44.510;-123.270;2024-02-23T11:48:43;101842.72;;;3.33;100.00
64551;BME280;74341;44.510;-123.270;2024-02-23T11:51:09;101849.22;;;3.31;100.00
64551;BME280;74341;44.510;-123.270;2024-02-23T11:53:38;101840.34;;;3.29;100.00
64551;BME280;74341;44.510;-123.270;2024-02-23T11:56:05;101841.22;;;3.29;100.00
64551;BME280;74341;44.510;-123.270;2024-02-23T11:58:35;101839.38;;;3.30;100.00
64551;BME280;74341;44.510;-123.270;2024-02-23T12:01:02;101837.66;;;3.29;100.00
64551;BME280;74341;44.510;-123.270;2024-02-23T12:03:29;101840.53;;;3.26;100.00
64551;BME280;74341;44.510;-123.270;2024-02-23T12:05:59;101843.25;;;3.26;100.00
64551;BME280;74341;44.510;-123.270;2024-02-23T12:08:27;101844.97;;;3.27;100.00
64551;BME280;74341;44.510;-123.270;2024-02-23T12:10:54;101830.59;;;3.26;100.00
64551;BME280;74341;44.510;-123.270;2024-02-23T12:13:21;101825.19;;;3.26;100.00
64551;BME280;74341;44.510;-123.270;2024-02-23T12:15:51;101826.94;;;3.27;100.00
64551;BME280;74341;44.510;-123.270;2024-02-23T12:18:21;101828.00;;;3.24;100.00
64551;BME280;74341;44.510;-123.270;2024-02-23T12:20:49;101834.25;;;3.25;100.00
64551;BME280;74341;44.510;-123.270;2024-02-23T12:23:15;101828.97;;;3.23;100.00
64551;BME280;74341;44.510;-123.270;2024-02-23T12:25:57;101829.72;;;3.26;100.00